MSR905 HECA-EGLL
Flight info
| Callsign | MSR905 |
|---|---|
| Flight time | N/A |
| Altitude | 32000 |
| Route | HECA/05C CVO L617 NOZ L551 ANTAR DCT NEVRA/N0457F340 DCT TALAS DCT ENFAR DCT AKIKA DCT SOLGU DCT NAVSU DCT SABAD DCT KUBUD DCT GIKUS DCT SOTOV/N0456F360 DCT XEBIX DCT USUDO DCT LUPEN DCT ETINO DCT ABNUR DCT DIMAL DCT ALESO |
| Aircraft | B738/M-SDE2E3FGHIRWXY/LB1 |
Departure
| Time | 2026-04-28 14:42 |
|---|---|
| Airport | Cairo International Airport (HECA) |
Arrival
| Time | N/A |
|---|---|
| Airport | London Heathrow Airport (EGLL) |
| Time | Latitude | Longitude | Altitude | Speed | Heading |
|---|---|---|---|---|---|
| 2026-04-28 14:42 | 30.12402 | 31.23876 | 5628 ft | 264 kts | 324° |
| 2026-04-28 14:42 | 30.14041 | 31.22555 | 6388 ft | 268 kts | 324° |
| 2026-04-28 14:42 | 30.15539 | 31.21349 | 7073 ft | 270 kts | 324° |
| 2026-04-28 14:42 | 30.16997 | 31.20178 | 7711 ft | 272 kts | 324° |
| 2026-04-28 14:43 | 30.18349 | 31.19095 | 8290 ft | 274 kts | 324° |
| 2026-04-28 14:43 | 30.19863 | 31.17882 | 8927 ft | 276 kts | 324° |
| 2026-04-28 14:43 | 30.22980 | 31.15391 | 10164 ft | 282 kts | 324° |
| 2026-04-28 14:44 | 30.24724 | 31.13998 | 10324 ft | 303 kts | 324° |
| 2026-04-28 14:44 | 30.26531 | 31.12553 | 10461 ft | 322 kts | 324° |
| 2026-04-28 14:44 | 30.28424 | 31.11034 | 10526 ft | 342 kts | 324° |
| 2026-04-28 14:44 | 30.30418 | 31.09432 | 10660 ft | 359 kts | 324° |
| 2026-04-28 14:45 | 30.31861 | 31.08270 | 10954 ft | 363 kts | 324° |
| 2026-04-28 14:45 | 30.36252 | 31.04737 | 12046 ft | 369 kts | 324° |
| 2026-04-28 14:45 | 30.38592 | 31.02855 | 12688 ft | 370 kts | 324° |
| 2026-04-28 14:46 | 30.40708 | 31.01160 | 13230 ft | 372 kts | 324° |
| 2026-04-28 14:46 | 30.42784 | 30.99503 | 13753 ft | 372 kts | 324° |
| 2026-04-28 14:46 | 30.44901 | 30.97820 | 14270 ft | 374 kts | 324° |
| 2026-04-28 14:46 | 30.47024 | 30.96138 | 14772 ft | 375 kts | 324° |
| 2026-04-28 14:47 | 30.49191 | 30.94430 | 15251 ft | 376 kts | 324° |
| 2026-04-28 14:47 | 30.51367 | 30.92723 | 15715 ft | 378 kts | 324° |
| 2026-04-28 14:47 | 30.53548 | 30.91019 | 15754 ft | 386 kts | 324° |
| 2026-04-28 14:47 | 30.55648 | 30.89069 | 15042 ft | 390 kts | 316° |
| 2026-04-28 14:48 | 30.57544 | 30.86876 | 14143 ft | 391 kts | 315° |
| 2026-04-28 14:48 | 30.59476 | 30.84689 | 13244 ft | 392 kts | 316° |
| 2026-04-28 14:48 | 30.61408 | 30.82576 | 13069 ft | 391 kts | 316° |
| 2026-04-28 14:48 | 30.63372 | 30.80420 | 12534 ft | 384 kts | 316° |
| 2026-04-28 14:49 | 30.65289 | 30.78317 | 12022 ft | 375 kts | 317° |
| 2026-04-28 14:49 | 30.67168 | 30.76262 | 11522 ft | 367 kts | 317° |
| 2026-04-28 14:49 | 30.69006 | 30.74254 | 11022 ft | 360 kts | 317° |
| 2026-04-28 14:49 | 30.70805 | 30.72288 | 10523 ft | 354 kts | 317° |
| 2026-04-28 14:50 | 30.72582 | 30.70348 | 10022 ft | 348 kts | 317° |
| 2026-04-28 14:50 | 30.74339 | 30.68429 | 9548 ft | 342 kts | 317° |
| 2026-04-28 14:50 | 30.76012 | 30.66600 | 9702 ft | 329 kts | 317° |
| 2026-04-28 14:50 | 30.77730 | 30.64723 | 9726 ft | 340 kts | 317° |
| 2026-04-28 14:51 | 30.79377 | 30.62922 | 10261 ft | 338 kts | 317° |
| 2026-04-28 14:51 | 30.80904 | 30.61251 | 10887 ft | 337 kts | 317° |
| 2026-04-28 14:51 | 30.81353 | 30.60760 | 11070 ft | 337 kts | 317° |
| 2026-04-28 14:51 | 30.82326 | 30.59695 | 11467 ft | 337 kts | 317° |
| 2026-04-28 14:52 | 30.84020 | 30.57841 | 12163 ft | 335 kts | 317° |
| 2026-04-28 14:52 | 30.85630 | 30.56077 | 12833 ft | 333 kts | 316° |
| 2026-04-28 14:52 | 30.87355 | 30.54186 | 13555 ft | 330 kts | 316° |
| 2026-04-28 14:52 | 30.87529 | 30.53995 | 13628 ft | 330 kts | 316° |
| 2026-04-28 14:53 | 30.88991 | 30.52392 | 14247 ft | 327 kts | 316° |
| 2026-04-28 14:53 | 30.90645 | 30.50578 | 14953 ft | 324 kts | 316° |
| 2026-04-28 14:53 | 30.92234 | 30.48835 | 15640 ft | 320 kts | 316° |
| 2026-04-28 14:53 | 30.93838 | 30.47074 | 16342 ft | 315 kts | 315° |
| 2026-04-28 14:54 | 30.95404 | 30.45353 | 17039 ft | 310 kts | 315° |
| 2026-04-28 14:54 | 30.96956 | 30.43647 | 17743 ft | 304 kts | 314° |
| 2026-04-28 14:54 | 30.98453 | 30.42002 | 18435 ft | 297 kts | 314° |
| 2026-04-28 14:54 | 30.99943 | 30.40364 | 19142 ft | 290 kts | 314° |
| 2026-04-28 14:55 | 31.01357 | 30.38808 | 19831 ft | 281 kts | 313° |
| 2026-04-28 14:55 | 31.02753 | 30.37273 | 20533 ft | 271 kts | 312° |
| 2026-04-28 14:55 | 31.04089 | 30.35802 | 21232 ft | 260 kts | 311° |
| 2026-04-28 14:55 | 31.05371 | 30.34388 | 21761 ft | 255 kts | 310° |
| 2026-04-28 14:56 | 31.06647 | 30.32974 | 22162 ft | 254 kts | 310° |
| 2026-04-28 14:56 | 31.07940 | 30.31543 | 22383 ft | 259 kts | 309° |
| 2026-04-28 14:56 | 31.09113 | 30.29925 | 22429 ft | 265 kts | 297° |
| 2026-04-28 14:56 | 31.09816 | 30.27966 | 22495 ft | 272 kts | 285° |
| 2026-04-28 14:57 | 31.10370 | 30.25769 | 22545 ft | 284 kts | 287° |
| 2026-04-28 14:57 | 31.10987 | 30.23553 | 22594 ft | 295 kts | 287° |
| 2026-04-28 14:57 | 31.11634 | 30.21235 | 22642 ft | 306 kts | 287° |
| 2026-04-28 14:57 | 31.12279 | 30.18867 | 22691 ft | 317 kts | 287° |
| 2026-04-28 14:58 | 31.12959 | 30.16375 | 22740 ft | 327 kts | 287° |
| 2026-04-28 14:58 | 31.13662 | 30.13805 | 22789 ft | 337 kts | 287° |
| 2026-04-28 14:58 | 31.14379 | 30.11180 | 22947 ft | 344 kts | 287° |
| 2026-04-28 14:58 | 31.15088 | 30.08576 | 23153 ft | 348 kts | 287° |
| 2026-04-28 14:59 | 31.15826 | 30.05860 | 23364 ft | 353 kts | 287° |
| 2026-04-28 14:59 | 31.16540 | 30.03234 | 23567 ft | 357 kts | 287° |
| 2026-04-28 14:59 | 31.17169 | 30.00916 | 23745 ft | 360 kts | 286° |